Mobile Downtown Airport
KBFM : now visible

Airfield :











YOU CAN JOIN US ON...

 
LOGIN :

Register | Disclaimer

   EN    FR    IT 

 









Legend :    VFR   Marginal VFR   IFR   Intensive IFR   Very Intensive IFR
Visi :
Ceiling :
>= 8 km
>= 3000ft
5 to 8 km
1000 to 3000 ft
1500m to 5 km
500 to 1000 ft
800 to 1500m
200 to 500 ft
< 800m
< 200 ft
Symbols :   Thunderstorms  Fog  Heavy snow  Heavy precipitations  Wind > 20 kt







- Airport Elevation : 26 ft


KBFM - Mobile Downtown

CURRENT METAR :
  • 210553Z AUTO 24004KT 10SM CLR 26/23 A3004 RMK AO2 SLP170 T02560228 10283 20250 403060250 50001

EXPIRED METARs :
  • 210453Z AUTO 21003KT 10SM BKN095 26/23 A3006 RMK AO2 SLP177 T02560233
  • 210353Z AUTO 00000KT 10SM OVC100 26/24 A3006 RMK AO2 SLP179 T02560244

TAF KBFM
Valid from the 21 at 06:00 until the 22 at 06:00 UTC


210520Z 2106/2206 00000KT P6SM BKN100
FM210900 13003KT P6SM VCSH SCT040 BKN100
FM211500 09004KT P6SM VCTS SCT040CB BKN100
TEMPO 2115/2119 5SM TSRA BKN035CB
FM212300 19006KT P6SM VCSH SCT030 BKN150
KZHU FIR / North America



MET'MAP, your aeronautical weather chart ! - Copyright ORBIFLY December 2007 - Disclaimer

ORBIFLY MET'MAP TEAM :

Programming & Development : Alexandra Zaïnal
Concept & Development : Baudouin d'Aumeries
Co-Development & Prog : Marc-Olivier Méhu
Technical & hardware support : Manuel Goepfert

Contact : metmap@orbifly.com




SOURCES & CREDITS :

   NOAA       Earth
Advisory